Roberts International Airport

Jump to: basic info | weather | frequencies | runways | comments

Related pages: nearby airports | nearby navaids | notams | map

Basic information (top)

Codes: ROB GLRB
Location: lon 6.233790, lat -10.362300, elev 31 ft / 9 m msl
Status: medium_airport
Scheduled airline service: yes
Links: Wikipedia Mobile

Weather (top)

Current conditions (rec'd 2015/04/27 05:00Z):

GLRB 270500Z 01005KT 9000 FEW012 24/23 Q1012 RMK BRVC

Airport forecast (rec'd 2015/04/26 00:51Z):

TAF GLRB 262200Z 2700/2806 22008KT 9999 BKN018 
      TEMPO 2701/2705 07004KT 8000 -TSRA/TS SCT012 FEW023CB 
      BECMG 2706/2708 03004KT 9000 SCT011 FEW023CB SCT100

Frequencies (top)

Verify before use: may be inaccurate or out of date.

A/G: 345.2 MHz (A/G VOICE RDO)
APP: 124.5 MHz (ROBERTS APP)
GND: 121.9 MHz (GND)
TWR: 118.3 MHz (ROBERTS TWR)

Runways (top)

04/22: 11,000 x 150 ft (3,353 x 46 m) — paved — lighted — threshold 22 displaced 1,200 ft (366 m)

Latest comments (top)

No comments yet for Roberts International Airport

More... (top)

See also NOTAMs and nearby airports and navaids, or visit the Roberts International Airport page at the main OurAirports website..